Time;durP1;ratioP1;P1;durP2;ratioP2;P2;SDS_P1;SDS_P2;PMS_P1;PMS_P2;Temp;Humidity;BMP_temperature;BMP_pressure;BME280_temperature;BME280_humidity;BME280_pressure;Samples;Min_cycle;Max_cycle;Signal;HPM_P1;HPM_P2
2024/01/10 00:02:08;;;;;;;10.98;4.88;;;;;;;-144.05;39.93;57192.94;5071174;28;20100;-78
2024/01/10 00:04:34;;;;;;;10.05;5.18;;;;;;;-144.05;39.97;57178.06;5055527;28;20086;-76
2024/01/10 00:07:00;;;;;;;11.75;5.50;;;;;;;-144.05;39.89;57182.31;5053892;28;20020;-77
2024/01/10 00:09:26;;;;;;;15.85;6.05;;;;;;;-144.05;40.20;57178.06;5053742;28;20126;-77
2024/01/10 00:11:52;;;;;;;12.30;5.28;;;;;;;-144.05;40.16;57186.56;5055109;28;20116;-77
2024/01/10 00:14:19;;;;;;;12.13;5.57;;;;;;;-144.05;40.37;57182.31;5054515;28;20064;-78
2024/01/10 00:16:45;;;;;;;12.48;5.35;;;;;;;-144.05;40.10;57188.69;5054069;28;20541;-77
2024/01/10 00:19:11;;;;;;;12.20;5.55;;;;;;;-144.05;40.43;57205.66;5055383;28;20108;-79
2024/01/10 00:21:37;;;;;;;13.80;5.85;;;;;;;-144.05;39.96;57192.94;5053418;28;20025;-75
2024/01/10 00:24:04;;;;;;;9.95;4.97;;;;;;;-144.05;39.82;57199.31;5070652;28;20509;-77
2024/01/10 00:26:30;;;;;;;13.00;4.68;;;;;;;-144.05;40.05;57212.03;5056937;28;20053;-78
2024/01/10 00:28:56;;;;;;;9.90;5.13;;;;;;;-144.05;39.81;57192.94;5056066;28;20029;-78
2024/01/10 00:31:22;;;;;;;14.48;5.72;;;;;;;-144.05;40.12;57167.44;5070412;28;20562;-76
2024/01/10 00:33:49;;;;;;;11.73;5.88;;;;;;;-144.05;39.91;57214.16;5053035;28;20028;-77
2024/01/10 00:36:15;;;;;;;12.57;5.53;;;;;;;-144.05;39.89;57167.44;5053308;28;20544;-77
2024/01/10 00:38:41;;;;;;;15.05;5.82;;;;;;;-144.05;39.85;57165.31;5053352;28;20482;-76
2024/01/10 00:41:07;;;;;;;11.85;5.80;;;;;;;-144.05;40.07;57186.56;5056557;28;20025;-78
2024/01/10 00:43:34;;;;;;;10.85;5.13;;;;;;;-144.05;39.82;57205.66;5058607;28;20276;-76
2024/01/10 00:46:00;;;;;;;15.23;6.32;;;;;;;-144.05;39.91;57220.53;5056519;28;20035;-77
2024/01/10 00:48:26;;;;;;;11.45;5.03;;;;;;;-144.05;39.67;57199.31;5056704;28;20104;-77
2024/01/10 00:50:52;;;;;;;13.88;5.30;;;;;;;-144.05;39.88;57150.44;5058553;28;20094;-77
2024/01/10 00:53:18;;;;;;;11.52;5.40;;;;;;;-144.05;40.01;57186.56;5055895;28;20060;-76
2024/01/10 00:55:45;;;;;;;13.00;5.72;;;;;;;-144.05;40.01;57186.56;5065862;28;20025;-78
2024/01/10 00:58:11;;;;;;;10.88;5.15;;;;;;;-144.05;39.70;57190.81;5058462;28;20039;-78
2024/01/10 01:00:37;;;;;;;10.82;5.05;;;;;;;-144.05;40.04;57188.69;5059178;28;20142;-79
2024/01/10 01:03:04;;;;;;;12.80;5.50;;;;;;;-144.05;39.86;57192.94;5056802;28;20025;-77
2024/01/10 01:05:30;;;;;;;10.65;5.45;;;;;;;-144.05;39.75;57182.31;5056501;28;20040;-79
2024/01/10 01:07:56;;;;;;;12.30;5.13;;;;;;;-144.05;39.67;57182.31;5055941;28;20054;-78
2024/01/10 01:10:22;;;;;;;14.25;6.30;;;;;;;-144.05;40.18;57161.06;5057449;28;20112;-78
2024/01/10 01:12:49;;;;;;;11.70;5.50;;;;;;;-144.05;40.29;57178.06;5057431;28;20056;-78
2024/01/10 01:15:15;;;;;;;10.63;5.05;;;;;;;-144.05;40.79;57190.81;5072537;28;20024;-78
2024/01/10 01:17:41;;;;;;;11.35;5.70;;;;;;;-144.05;40.76;57207.78;5055895;28;20485;-76
2024/01/10 01:20:08;;;;;;;13.55;5.80;;;;;;;-144.05;41.24;57167.44;5056389;28;20067;-78
2024/01/10 01:22:34;;;;;;;14.98;6.90;;;;;;;-144.05;41.61;57171.69;5056693;28;20054;-76
2024/01/10 01:25:01;;;;;;;9.93;4.85;;;;;;;-144.05;41.89;57199.31;5067228;28;20045;-76
2024/01/10 01:27:27;;;;;;;14.57;5.35;;;;;;;-144.05;41.74;57224.78;5054542;28;20041;-76
2024/01/10 01:29:53;;;;;;;16.02;6.30;;;;;;;-144.05;42.08;57171.69;5053976;28;20065;-77
2024/01/10 01:32:19;;;;;;;13.10;5.93;;;;;;;-144.05;42.40;57180.19;5055509;28;20491;-78
2024/01/10 01:34:46;;;;;;;11.68;6.22;;;;;;;-144.05;42.72;57173.81;5050379;28;20025;-76
2024/01/10 01:37:12;;;;;;;15.65;6.03;;;;;;;-144.05;42.91;57199.31;5054359;28;20025;-76
2024/01/10 01:39:39;;;;;;;13.60;5.38;;;;;;;-144.05;42.79;57207.78;5055298;28;20174;-76
2024/01/10 01:42:05;;;;;;;15.55;5.82;;;;;;;-144.05;43.50;57186.56;5054319;28;20021;-77
2024/01/10 01:44:34;;;;;;;17.50;7.63;;;;;;;-144.05;43.36;57218.41;5054370;28;20143;-77
2024/01/10 01:47:01;;;;;;;12.82;5.93;;;;;;;-144.05;43.45;57201.44;5055740;28;20099;-78
2024/01/10 01:49:28;;;;;;;15.55;7.03;;;;;;;-144.05;43.59;57224.78;5055040;28;20053;-77
2024/01/10 01:51:56;;;;;;;12.23;5.97;;;;;;;-144.05;43.65;57169.56;5054287;28;20508;-76
2024/01/10 01:54:23;;;;;;;15.75;6.50;;;;;;;-144.05;44.01;57199.31;5054423;28;20111;-78
2024/01/10 01:56:50;;;;;;;15.20;6.35;;;;;;;-144.05;43.91;57165.31;5054247;28;20033;-76
2024/01/10 01:59:17;;;;;;;11.13;6.15;;;;;;;-144.05;44.36;57175.94;5070561;28;20029;-78
2024/01/10 02:01:43;;;;;;;15.43;6.55;;;;;;;-144.05;44.44;57212.03;5052734;28;20478;-76
2024/01/10 02:04:09;;;;;;;17.65;6.20;;;;;;;-144.05;44.55;57139.81;5054301;28;20032;-76
2024/01/10 02:06:36;;;;;;;17.23;7.00;;;;;;;-144.05;44.39;57154.69;5054438;28;20136;-77
2024/01/10 02:09:03;;;;;;;16.40;7.70;;;;;;;-144.05;44.87;57192.94;5054165;28;20107;-75
2024/01/10 02:11:29;;;;;;;18.15;6.88;;;;;;;-144.05;45.04;57190.81;5053793;28;20083;-77
2024/01/10 02:13:57;;;;;;;14.32;7.38;;;;;;;-144.05;44.85;57169.56;5054920;28;20506;-74
2024/01/10 02:16:24;;;;;;;13.43;6.43;;;;;;;-144.05;44.98;57156.81;5055518;28;20033;-78
2024/01/10 02:18:50;;;;;;;13.50;6.35;;;;;;;-144.05;44.70;57199.31;5055073;28;20029;-77
2024/01/10 02:21:21;;;;;;;15.35;6.40;;;;;;;-144.05;44.89;57231.16;5060103;28;20092;-78
2024/01/10 02:23:48;;;;;;;14.60;6.60;;;;;;;-144.05;45.26;57184.44;5067700;28;20033;-74
2024/01/10 02:26:16;;;;;;;10.70;6.10;;;-5.50;99.90;;;-144.05;45.60;57201.44;5070382;28;20025;-76
2024/01/10 02:28:42;;;;;;;12.48;6.22;;;;;;;-144.05;45.36;57186.56;5070179;28;20036;-74
2024/01/10 02:31:08;;;;;;;14.27;7.00;;;;;;;-144.05;45.69;57195.06;5070690;28;20061;-75
2024/01/10 02:33:35;;;;;;;13.45;7.10;;;;;;;-144.05;45.91;57188.69;5060202;28;20024;-76
2024/01/10 02:36:01;;;;;;;14.27;6.82;;;;;;;-144.05;45.71;57188.69;5051759;28;20104;-76
2024/01/10 02:38:27;;;;;;;12.48;6.10;;;;;;;-144.05;45.75;57224.78;5053591;28;20560;-77
2024/01/10 02:40:56;;;;;;;13.55;5.93;;;;;;;-144.05;46.30;57192.94;5069375;28;20075;-77
2024/01/10 02:43:22;;;;;;;12.43;5.88;;;;;;;-144.05;46.00;57135.56;5053034;28;20040;-77
2024/01/10 02:45:48;;;;;;;12.90;5.82;;;;;;;-144.05;45.54;57201.44;5055883;28;20098;-77
2024/01/10 02:48:14;;;;;;;12.07;6.03;;;;;;;-144.05;45.98;57220.53;5060348;28;20130;-76
2024/01/10 02:50:41;;;;;;;14.10;6.88;;;;;;;-144.05;45.86;57186.56;5054868;28;20039;-77
2024/01/10 02:53:07;;;;;;;13.82;7.10;;;;;;;-144.05;46.48;57182.31;5053564;28;20083;-77
2024/01/10 02:55:33;;;;;;;16.52;7.25;;;;;;;-144.05;46.47;57209.91;5050930;28;20024;-76
2024/01/10 02:57:59;;;;;;;16.08;6.40;;;;;;;-144.05;46.50;57205.66;5052437;28;20024;-75
2024/01/10 03:00:26;;;;;;;13.63;6.32;;;;;;;-144.05;46.90;57190.81;5068121;28;20567;-77
2024/01/10 03:02:52;;;;;;;12.35;6.07;;;;;;;-144.05;46.67;57199.31;5052351;28;20531;-75
2024/01/10 03:05:18;;;;;;;14.95;6.57;;;;;;;-144.05;46.70;57209.91;5054863;28;20027;-76
2024/01/10 03:07:44;;;;;;;17.52;7.30;;;;;;;-144.05;46.54;57222.66;5053649;28;20478;-75
2024/01/10 03:10:10;;;;;;;14.85;6.72;;;;;;;-144.05;46.42;57175.94;5053979;28;20104;-77
2024/01/10 03:12:37;;;;;;;15.48;6.90;;;;;;;-144.05;47.17;57199.31;5052389;28;20442;-76
2024/01/10 03:15:06;;;;;;;16.15;6.05;;;-5.80;99.90;;;-144.05;47.06;57188.69;5053235;28;20112;-76
2024/01/10 03:17:33;;;;;;;15.00;7.30;;;;;;;-144.05;47.23;57173.81;5053538;28;20416;-77
2024/01/10 03:20:00;;;;;;;18.27;7.78;;;;;;;-144.05;47.00;57186.56;5052803;28;20084;-74
2024/01/10 03:22:26;;;;;;;16.83;7.05;;;;;;;-144.05;47.19;57197.19;5053015;28;20116;-75
2024/01/10 03:24:52;;;;;;;17.38;6.95;;;;;;;-144.05;47.14;57209.91;5052110;28;20048;-78
2024/01/10 03:27:18;;;;;;;14.93;7.05;;;;;;;-144.05;47.36;57197.19;5053454;28;20021;-76
2024/01/10 03:29:44;;;;;;;12.88;6.93;;;;;;;-144.05;46.61;57233.28;5053123;28;20025;-78
2024/01/10 03:32:11;;;;;;;12.25;6.30;;;;;;;-144.05;46.72;57182.31;5053809;28;20017;-76
2024/01/10 03:34:37;;;;;;;13.32;6.95;;;;;;;-144.05;46.50;57205.66;5051565;28;20040;-78
2024/01/10 03:37:03;;;;;;;15.57;6.85;;;;;;;-144.05;46.55;57214.16;5051826;28;20028;-75
2024/01/10 03:39:30;;;;;;;17.48;6.88;;;;;;;-144.05;46.28;57146.19;5052069;28;20036;-76
2024/01/10 03:41:57;;;;;;;13.35;6.20;;;;;;;-144.05;46.31;57197.19;5066779;28;20385;-76
2024/01/10 03:44:23;;;;;;;15.85;5.97;;;;;;;-144.05;46.25;57192.94;5052040;28;20052;-76
2024/01/10 03:46:49;;;;;;;20.33;6.90;;;;;;;-144.05;46.60;57186.56;5067003;28;20035;-76
2024/01/10 03:49:16;;;;;;;15.50;6.75;;;;;;;-144.05;46.64;57207.78;5049890;28;20108;-76
2024/01/10 03:51:42;;;;;;;17.25;7.88;;;;;;;-144.05;46.74;57222.66;5049792;28;20029;-77
2024/01/10 03:54:08;;;;;;;16.58;7.05;;;;;;;-144.05;46.01;57175.94;5051827;28;20498;-76
2024/01/10 03:56:34;;;;;;;18.23;7.07;;;;;;;-144.05;46.07;57201.44;5052725;28;20021;-77
2024/01/10 03:59:03;;;;;;;15.25;7.10;;;;;;;-144.05;46.24;57192.94;5052935;28;20490;-76
2024/01/10 04:01:29;;;;;;;17.02;7.50;;;;;;;-144.05;45.96;57180.19;5051099;28;20482;-77
2024/01/10 04:03:56;;;;;;;17.98;7.07;;;;;;;-144.05;46.34;57192.94;5050971;28;20111;-77
2024/01/10 04:06:22;;;;;;;12.98;6.40;;;;;;;-144.05;46.26;57205.66;5051891;28;20033;-76
2024/01/10 04:08:48;;;;;;;16.00;6.82;;;;;;;-144.05;46.39;57158.94;5055529;28;20098;-76
2024/01/10 04:11:14;;;;;;;13.13;6.30;;;;;;;-144.05;46.47;57222.66;5051086;28;20056;-76
2024/01/10 04:13:41;;;;;;;14.90;7.40;;;;;;;-144.05;46.81;57212.03;5052891;28;20071;-77
2024/01/10 04:16:07;;;;;;;13.48;7.07;;;;;;;-144.05;46.88;57192.94;5051242;28;20033;-76
2024/01/10 04:18:33;;;;;;;21.23;7.03;;;;;;;-144.05;47.44;57201.44;5052447;28;20445;-78
2024/01/10 04:20:59;;;;;;;19.27;7.28;;;;;;;-144.05;46.97;57203.56;5051136;28;20449;-75
2024/01/10 04:23:25;;;;;;;15.77;6.93;;;;;;;-144.05;46.90;57201.44;5050725;28;20497;-76
2024/01/10 04:25:52;;;;;;;15.10;7.90;;;;;;;-144.05;46.83;57226.91;5051822;28;20021;-76
2024/01/10 04:28:18;;;;;;;12.30;6.10;;;;;;;-144.05;46.28;57184.44;5049668;28;20059;-76
2024/01/10 04:30:44;;;;;;;14.77;6.90;;;;;;;-144.05;46.71;57184.44;5050324;28;20078;-76
2024/01/10 04:33:10;;;;;;;15.88;7.72;;;;;;;-144.05;46.81;57205.66;5053489;28;20502;-78
2024/01/10 04:35:37;;;;;;;16.60;7.30;;;;;;;-144.05;46.91;57192.94;5052066;28;20040;-78
2024/01/10 04:38:03;;;;;;;17.05;7.78;;;;;;;-144.05;46.87;57199.31;5051419;28;20605;-77
2024/01/10 04:40:29;;;;;;;14.95;7.30;;;;;;;-144.05;46.81;57161.06;5051887;28;20028;-76
2024/01/10 04:42:55;;;;;;;12.40;6.30;;;;;;;-144.05;46.37;57220.53;5052504;28;20021;-77
2024/01/10 04:45:22;;;;;;;13.00;6.53;;;;;;;-144.05;46.95;57186.56;5051852;28;20123;-76
2024/01/10 04:47:48;;;;;;;15.13;7.13;;;;;;;-144.05;47.12;57175.94;5052876;28;20109;-75
2024/01/10 04:50:14;;;;;;;13.80;6.93;;;;;;;-144.05;46.62;57237.53;5066634;28;20067;-77
2024/01/10 04:52:41;;;;;;;15.02;6.85;;;;;;;-144.05;46.85;57197.19;5051472;28;20108;-76
2024/01/10 04:55:07;;;;;;;13.88;7.03;;;;;;;-144.05;46.69;57154.69;5051183;28;20055;-77
2024/01/10 04:57:34;;;;;;;14.60;7.05;;;;;;;-144.05;46.72;57209.91;5051860;28;20039;-76
2024/01/10 05:00:00;;;;;;;15.93;7.80;;;;;;;-144.05;47.09;57192.94;5066774;28;20115;-78
2024/01/10 05:02:26;;;;;;;15.77;6.93;;;;;;;-144.05;47.19;57241.78;5052046;28;20036;-76
2024/01/10 05:04:52;;;;;;;14.18;7.05;;;;;;;-144.05;46.90;57229.03;5051697;28;20468;-75
2024/01/10 05:07:19;;;;;;;21.13;8.00;;;;;;;-144.05;47.25;57156.81;5051611;28;20025;-78
2024/01/10 05:09:45;;;;;;;15.00;6.95;;;;;;;-144.05;47.37;57195.06;5067446;28;20036;-76
2024/01/10 05:12:11;;;;;;;14.00;6.57;;;;;;;-144.05;47.48;57133.44;5051751;28;20058;-76
2024/01/10 05:14:37;;;;;;;13.43;6.03;;;;;;;-144.05;47.50;57201.44;5051301;28;20618;-77
2024/01/10 05:17:04;;;;;;;13.70;6.93;;;;;;;-144.05;47.72;57224.78;5050205;28;20064;-76
2024/01/10 05:19:30;;;;;;;18.05;6.90;;;;;;;-144.05;47.63;57195.06;5051154;28;20116;-77
2024/01/10 05:21:57;;;;;;;15.73;7.03;;;;;;;-144.05;47.46;57207.78;5051381;28;20054;-77
2024/01/10 05:24:24;;;;;;;18.10;8.80;;;;;;;-144.05;47.62;57163.19;5056969;28;20033;-78
2024/01/10 05:26:51;;;;;;;13.82;7.82;;;;;;;-144.05;48.56;57209.91;5056781;28;20021;-77
2024/01/10 05:29:19;;;;;;;16.55;7.15;;;;;;;-144.05;48.89;57197.19;5059315;28;20548;-77
2024/01/10 05:31:46;;;;;;;16.33;7.35;;;;;;;-144.05;48.89;57203.56;5072719;28;20044;-78
2024/01/10 05:34:12;;;;;;;15.65;7.35;;;;;;;-144.05;49.31;57214.16;5054659;28;20101;-77
2024/01/10 05:36:39;;;;;;;15.48;7.50;;;;;;;-144.05;49.06;57205.66;5054831;28;20052;-75
2024/01/10 05:39:05;;;;;;;15.95;6.97;;;;;;;-144.05;49.52;57205.66;5054206;28;20055;-75
2024/01/10 05:41:31;;;;;;;23.02;8.18;;;;;;;-144.05;49.64;57203.56;5054447;28;20087;-76
2024/01/10 05:43:57;;;;;;;16.73;7.88;;;;;;;-144.05;49.40;57229.03;5053524;28;20199;-76
2024/01/10 05:46:24;;;;;;;15.38;7.25;;;;;;;-144.05;49.41;57248.16;5054122;28;20033;-76
2024/01/10 05:48:50;;;;;;;14.82;6.97;;;;;;;-144.05;49.57;57212.03;5053080;28;20074;-76
2024/01/10 05:51:16;;;;;;;16.58;7.85;;;;;;;-144.05;49.57;57203.56;5054383;28;20029;-76
2024/01/10 05:53:42;;;;;;;14.93;7.65;;;;;;;-144.05;49.64;57220.53;5054354;28;20497;-75
2024/01/10 05:56:09;;;;;;;15.98;7.57;;;;;;;-144.05;48.61;57178.06;5054526;28;20044;-76
2024/01/10 05:58:35;;;;;;;14.23;7.25;;;;;;;-144.05;48.32;57156.81;5054259;28;20025;-76
2024/01/10 06:01:02;;;;;;;18.98;7.80;;;;;;;-144.05;47.57;57192.94;5053901;28;20135;-78
2024/01/10 06:03:28;;;;;;;15.82;7.43;;;;;;;-144.05;47.84;57178.06;5053362;28;20035;-76
2024/01/10 06:05:54;;;;;;;13.07;7.05;;;;;;;-144.05;47.63;57190.81;5054141;28;20111;-76
2024/01/10 06:08:22;;;;;;;14.10;6.90;;;;;;;-144.05;48.02;57222.66;5052441;28;20044;-75
2024/01/10 06:10:48;;;;;;;19.45;7.70;;;;;;;-144.05;48.82;57209.91;5053964;28;20033;-77
2024/01/10 06:13:14;;;;;;;15.60;7.00;;;;;;;-144.05;49.10;57229.03;5054075;28;20485;-77
2024/01/10 06:15:41;;;;;;;23.40;8.32;;;;;;;-144.05;49.20;57201.44;5053591;28;20114;-76
2024/01/10 06:18:07;;;;;;;18.23;7.15;;;;;;;-144.05;49.43;57186.56;5053773;28;20033;-75
2024/01/10 06:20:35;;;;;;;15.77;7.80;;;;;;;-144.05;49.51;57231.16;5053840;28;20051;-75
2024/01/10 06:23:01;;;;;;;16.27;7.38;;;;;;;-144.05;49.45;57201.44;5053383;28;20035;-74
2024/01/10 06:25:27;;;;;;;17.02;7.63;;;;;;;-144.05;49.74;57224.78;5069087;28;20029;-75
2024/01/10 06:27:54;;;;;;;21.00;8.68;;;;;;;-144.05;49.66;57169.56;5053635;28;20082;-77
2024/01/10 06:30:20;;;;;;;17.00;7.85;;;;;;;-144.05;49.95;57229.03;5054546;28;20056;-74
2024/01/10 06:32:46;;;;;;;16.77;8.40;;;;;;;-144.05;50.24;57233.28;5052664;28;20407;-77
2024/01/10 06:35:13;;;;;;;16.65;7.43;;;;;;;-144.05;50.05;57235.41;5054108;28;20033;-75
2024/01/10 06:37:39;;;;;;;16.30;8.23;;;;;;;-144.05;49.88;57186.56;5052346;28;20444;-76
2024/01/10 06:40:06;;;;;;;17.60;7.50;;;;;;;-144.05;49.84;57192.94;5051729;28;20025;-77
2024/01/10 06:42:32;;;;;;;22.77;8.68;;;;;;;-144.05;49.55;57218.41;5053157;28;20029;-75
2024/01/10 06:44:58;;;;;;;16.95;7.50;;;;;;;-144.05;49.48;57209.91;5053323;28;20113;-76
2024/01/10 06:47:24;;;;;;;19.85;8.35;;;;;;;-144.05;49.47;57243.91;5052937;28;20037;-76
2024/01/10 06:49:51;;;;;;;16.63;7.57;;;;;;;-144.05;49.67;57152.56;5052996;28;20446;-76
2024/01/10 06:52:17;;;;;;;19.02;8.45;;;;;;;-144.05;49.64;57205.66;5053042;28;20071;-76
2024/01/10 06:54:43;;;;;;;23.00;7.55;;;;;;;-144.05;50.08;57203.56;5052919;28;20043;-76
2024/01/10 06:57:10;;;;;;;17.17;8.35;;;;;;;-144.05;50.08;57212.03;5053180;28;20025;-76
2024/01/10 06:59:36;;;;;;;19.15;8.98;;;;;;;-144.05;49.75;57207.78;5053372;28;20028;-76
2024/01/10 07:02:03;;;;;;;22.48;8.30;;;;;;;-144.05;49.66;57243.91;5052396;28;20025;-76
2024/01/10 07:04:29;;;;;;;16.00;7.63;;;;;;;-144.05;49.69;57250.28;5052545;28;20028;-76
2024/01/10 07:06:55;;;;;;;19.27;8.43;;;;;;;-144.05;49.70;57218.41;5052708;28;20523;-76
2024/01/10 07:09:21;;;;;;;20.20;8.27;;;;;;;-144.05;49.69;57218.41;5053077;28;20028;-76
2024/01/10 07:11:49;;;;;;;21.27;8.65;;;;;;;-144.05;49.81;57197.19;5053206;28;20039;-77
2024/01/10 07:14:16;;;;;;;18.52;9.23;;;-6.60;99.90;;;-144.05;49.38;57233.28;5054922;28;20365;-76
2024/01/10 07:16:45;;;;;;;18.48;7.90;;;;;;;-144.05;49.58;57205.66;5055217;28;20037;-77
2024/01/10 07:19:14;;;;;;;19.88;9.13;;;;;;;-144.05;49.56;57203.56;5054363;28;20043;-77
2024/01/10 07:21:43;;;;;;;18.50;9.13;;;-6.00;99.90;;;-144.05;49.42;57184.44;5052380;28;20053;-75
2024/01/10 07:24:10;;;;;;;18.60;8.05;;;;;;;-144.05;49.33;57203.56;5083454;28;20032;-75
2024/01/10 07:26:37;;;;;;;24.73;9.40;;;-5.90;99.90;;;-144.05;49.71;57207.78;5050292;28;20033;-76
2024/01/10 07:29:04;;;;;;;23.48;9.90;;;;;;;-144.05;49.63;57205.66;5052366;28;20021;-76
2024/01/10 07:31:30;;;;;;;21.27;9.85;;;;;;;-144.05;49.47;57167.44;5083923;28;20029;-76
2024/01/10 07:33:57;;;;;;;20.33;8.90;;;-6.10;99.90;;;-144.05;49.23;57186.56;5051485;28;20029;-76
2024/01/10 07:36:26;;;;;;;25.58;10.50;;;-6.10;99.90;;;-144.05;49.24;57222.66;5066971;28;20179;-76
2024/01/10 07:38:53;;;;;;;21.55;9.65;;;;;;;-144.05;49.39;57205.66;5052192;28;20032;-77
2024/01/10 07:41:20;;;;;;;27.33;10.48;;;;;;;-144.05;49.78;57182.31;5061636;28;20525;-76
2024/01/10 07:43:46;;;;;;;24.17;9.52;;;;;;;-144.05;49.69;57173.81;5067488;28;20047;-76
2024/01/10 07:46:12;;;;;;;20.85;9.80;;;;;;;-144.05;49.52;57226.91;5052051;28;20059;-75
2024/01/10 07:48:38;;;;;;;22.95;11.05;;;;;;;-144.05;49.64;57180.19;5051830;28;20748;-76
2024/01/10 07:51:05;;;;;;;27.88;9.75;;;;;;;-144.05;49.64;57226.91;5053024;28;20457;-78
2024/01/10 07:53:31;;;;;;;32.70;10.15;;;;;;;-144.05;49.23;57224.78;5075691;28;20530;-76
2024/01/10 07:55:57;;;;;;;20.17;9.80;;;;;;;-144.05;49.04;57192.94;5054393;28;20071;-75
2024/01/10 07:58:23;;;;;;;24.23;10.30;;;;;;;-144.05;48.40;57173.81;5051484;28;20041;-75
2024/01/10 08:00:51;;;;;;;24.75;11.00;;;;;;;-144.05;48.01;57188.69;5052315;28;20063;-77
2024/01/10 08:03:17;;;;;;;25.15;9.55;;;;;;;-144.05;47.56;57197.19;5051605;28;20115;-76
2024/01/10 08:05:43;;;;;;;23.60;11.38;;;;;;;-144.05;47.24;57188.69;5052666;28;21365;-77
2024/01/10 08:08:10;;;;;;;24.80;11.45;;;;;;;-144.05;47.12;57197.19;5053234;28;20122;-75
2024/01/10 08:10:36;;;;;;;31.05;11.02;;;;;;;-144.05;46.52;57158.94;5052572;28;20055;-77
2024/01/10 08:13:02;;;;;;;22.70;11.05;;;;;;;-144.05;45.88;57184.44;5052684;28;20036;-76
2024/01/10 08:15:30;;;;;;;25.45;9.93;;;;;;;-144.05;46.21;57158.94;5053675;28;20525;-76
2024/01/10 08:17:56;;;;;;;29.27;12.32;;;;;;;-144.05;46.31;57175.94;5084121;28;20021;-75
2024/01/10 08:20:22;;;;;;;25.38;11.23;;;;;;;-144.05;46.21;57182.31;5068048;28;20115;-78
2024/01/10 08:22:49;;;;;;;28.42;11.27;;;-4.70;99.90;;;-144.05;45.80;57158.94;5052659;28;20033;-77
2024/01/10 08:25:15;;;;;;;26.88;11.32;;;;;;;-144.05;45.16;57184.44;5052690;28;20028;-77
2024/01/10 08:27:42;;;;;;;23.52;10.48;;;;;;;-144.05;44.61;57178.06;5067535;28;20117;-78
2024/01/10 08:30:09;;;;;;;27.98;12.75;;;;;;;-144.05;44.29;57158.94;5052502;28;20032;-76
2024/01/10 08:32:36;;;;;;;28.60;12.00;;;;;;;-144.05;43.83;57154.69;5052397;28;20098;-76
2024/01/10 08:35:09;;;;;;;28.10;12.10;;;;;;;-144.05;43.62;57120.72;5052707;28;20028;-76
2024/01/10 08:37:37;;;;;;;27.65;11.48;;;;;;;-144.05;43.17;57154.69;5052993;28;20029;-77
2024/01/10 08:40:09;;;;;;;30.58;11.23;;;;;;;-144.05;43.90;57133.44;5084205;28;20346;-77
2024/01/10 08:42:36;;;;;;;26.25;11.45;;;;;;;-144.05;43.24;57124.97;5051889;28;20132;-77
2024/01/10 08:45:02;;;;;;;29.40;12.10;;;;;;;-144.05;42.82;57169.56;5083658;28;20613;-78
2024/01/10 08:47:31;;;;;;;26.58;11.18;;;;;;;-144.05;42.42;57120.72;5082476;28;20029;-75
2024/01/10 08:50:01;;;;;;;31.20;12.60;;;;;;;-144.05;42.81;57127.09;5052643;28;20084;-78
2024/01/10 08:52:27;;;;;;;25.63;10.95;;;;;;;-144.05;42.86;57129.22;5052456;28;20398;-75
2024/01/10 08:54:53;;;;;;;25.15;11.77;;;;;;;-144.05;42.29;57137.69;5052053;28;20108;-77
2024/01/10 08:57:20;;;;;;;25.42;11.68;;;;;;;-144.05;41.74;57103.72;5052472;28;20486;-76
2024/01/10 08:59:46;;;;;;;24.58;11.45;;;;;;;-144.05;41.81;57099.47;5051465;28;20032;-77
2024/01/10 09:02:12;;;;;;;29.98;13.15;;;;;;;-144.05;41.99;57150.44;5055378;28;20545;-76
2024/01/10 09:04:39;;;;;;;24.75;12.85;;;;;;;-144.05;41.42;57137.69;5055525;28;20041;-77
2024/01/10 09:07:05;;;;;;;29.98;13.55;;;;;;;-144.05;41.16;57144.06;5071071;28;20029;-76
2024/01/10 09:09:31;;;;;;;26.85;13.52;;;;;;;-144.05;40.83;57135.56;5073596;28;20144;-75
2024/01/10 09:11:57;;;;;;;30.23;12.52;;;;;;;-144.05;40.64;57127.09;5063549;28;20041;-76
2024/01/10 09:14:24;;;;;;;31.58;12.45;;;;;;;-144.05;40.51;57129.22;5079776;28;20029;-75
2024/01/10 09:16:50;;;;;;;32.97;13.40;;;;;;;-144.05;40.42;57129.22;5069005;28;20032;-76
2024/01/10 09:19:17;;;;;;;29.90;13.10;;;;;;;-144.05;40.29;57118.59;5061345;28;20021;-76
2024/01/10 09:21:43;;;;;;;33.17;13.57;;;;;;;-144.05;40.07;57105.84;5058720;28;20215;-77
2024/01/10 09:24:11;;;;;;;27.58;13.93;;;;;;;-144.05;39.15;57112.22;5057379;28;20075;-78
2024/01/10 09:26:37;;;;;;;33.80;13.25;;;;;;;-144.05;39.31;57122.84;5057048;28;20035;-76
2024/01/10 09:29:03;;;;;;;31.92;14.23;;;;;;;-144.05;39.28;57120.72;5071709;28;20166;-79
2024/01/10 09:31:30;;;;;;;29.75;13.50;;;;;;;-144.05;38.92;57127.09;5055190;28;20375;-76
2024/01/10 09:33:57;;;;;;;27.85;12.98;;;;;;;-144.05;38.59;57114.34;5056012;28;20043;-76
2024/01/10 09:36:23;;;;;;;30.92;13.90;;;;;;;-144.05;38.94;57107.97;5070946;28;20029;-76
2024/01/10 09:38:49;;;;;;;33.55;14.82;;;;;;;-144.05;39.04;57078.22;5055907;28;20108;-77
2024/01/10 09:41:16;;;;;;;28.25;13.30;;;;;;;-144.05;38.53;57107.97;5056216;28;20110;-76
2024/01/10 09:43:43;;;;;;;29.88;13.75;;;;;;;-144.05;37.86;57103.72;5055366;28;20087;-76
2024/01/10 09:46:10;;;;;;;30.23;14.20;;;;;;;-144.05;36.94;57080.34;5055749;28;20021;-77
2024/01/10 09:48:37;;;;;;;33.35;14.57;;;;;;;-144.05;37.53;57099.47;5055527;28;20067;-76
2024/01/10 09:51:03;;;;;;;30.42;13.23;;;;;;;-144.05;37.15;57059.09;5055873;28;20028;-77
2024/01/10 09:53:39;;;;;;;31.95;14.57;;;-1.10;99.90;;;-144.05;36.63;57093.09;5055843;28;20104;-75
2024/01/10 09:56:08;;;;;;;30.63;14.20;;;;;;;-144.05;36.89;57084.59;5070448;28;20116;-75
2024/01/10 09:58:38;;;;;;;27.02;12.82;;;;;;;-144.05;36.68;57080.34;5055442;28;20089;-76
2024/01/10 10:01:06;;;;;;;29.92;14.98;;;;;;;-144.05;36.28;57080.34;5056220;28;20024;-78
2024/01/10 10:03:40;;;;;;;30.48;14.25;;;-1.00;99.90;;;-144.05;37.06;57093.09;5057885;28;20033;-74
2024/01/10 10:06:08;;;;;;;28.98;14.32;;;-0.50;99.90;;;-144.05;36.73;57088.84;5055670;28;20033;-75
2024/01/10 10:08:34;;;;;;;31.45;14.77;;;;;;;-144.05;36.61;57114.34;5054564;28;20208;-75
2024/01/10 10:11:00;;;;;;;31.58;14.02;;;;;;;-144.05;37.18;57076.09;5054767;28;20513;-77
2024/01/10 10:13:30;;;;;;;34.85;15.85;;;-1.10;99.90;;;-144.05;36.96;57084.59;5053563;28;20025;-76
2024/01/10 10:16:03;;;;;;;33.55;14.63;;;-0.70;99.90;;;-144.05;36.85;57129.22;5054062;28;20029;-76
2024/01/10 10:18:31;;;;;;;35.38;15.60;;;;;;;-144.05;36.68;57067.59;5053891;28;20053;-77
2024/01/10 10:21:15;;;;;;;36.00;15.57;;;-0.70;99.30;;;-144.05;36.43;57116.47;5054789;28;20436;-77
2024/01/10 10:23:57;;;;;;;33.88;14.82;;;-0.10;99.40;;;-144.05;36.05;57069.72;5053856;28;20386;-76
2024/01/10 10:26:23;;;;;;;30.75;14.45;;;;;;;-144.05;36.23;57078.22;5054331;28;20432;-77
2024/01/10 10:28:51;;;;;;;32.38;15.15;;;0.00;99.00;;;-144.05;35.44;57073.97;5053320;28;20446;-75
2024/01/10 10:31:19;;;;;;;33.10;15.20;;;-0.10;98.90;;;-144.05;35.61;57056.97;5083915;28;20120;-76
2024/01/10 10:33:50;;;;;;;32.13;13.60;;;;;;;-144.05;34.60;57059.09;5052428;28;20426;-76
2024/01/10 10:36:17;;;;;;;32.78;14.48;;;;;;;-144.05;35.12;57040.00;5083480;28;20032;-76
2024/01/10 10:38:44;;;;;;;32.90;14.48;;;;;;;-144.05;34.83;57048.50;5054059;28;20029;-78
2024/01/10 10:41:10;;;;;;;34.05;16.58;;;;;;;-144.05;34.75;57090.97;5083195;28;20369;-77
2024/01/10 10:43:38;;;;;;;30.42;14.30;;;;;;;-144.05;34.19;57029.38;5054003;28;20044;-77
2024/01/10 10:46:07;;;;;;;30.02;14.63;;;0.30;97.10;;;-144.05;34.27;57076.09;5053993;28;20025;-76
2024/01/10 10:48:34;;;;;;;33.13;15.40;;;0.60;96.60;;;-144.05;33.74;57069.72;5078205;28;20083;-77
2024/01/10 10:51:17;;;;;;;31.88;15.05;;;0.30;96.40;;;-144.05;33.96;57046.38;5054929;28;20028;-76
2024/01/10 10:53:45;;;;;;;33.92;15.13;;;;;;;-144.05;33.74;57067.59;5055583;28;20497;-76
2024/01/10 10:56:12;;;;;;;33.00;16.17;;;0.40;96.20;;;-144.05;33.65;57040.00;5084648;28;20031;-78
2024/01/10 10:58:43;;;;;;;30.95;15.02;;;0.50;96.70;;;-144.05;34.00;57046.38;5053354;28;20029;-76
2024/01/10 11:01:14;;;;;;;33.65;15.18;;;0.40;95.70;;;-144.05;33.83;57044.25;5055549;28;20017;-78